GIBO2: Ft Gibson Lake, OK

Data processed at Fri Mar 09 2018 23:33


All information presented herein is the property of the government of the United States of America and may be revised or deleted at any time without prior notice.
Dissemination of this information without the expressed written consent of the Public Affairs Office, Tulsa District U.S. Army Corps of Engineers is strictly prohibited.
These data are gathered electronically and, as presented, have not undergone any form of quality control. These data are not guaranteed to be valid or correct.
Go to home page.
Go to station list.

Upstream stations:

Downstream station:
Previous Day
Next Day
Current Day
    
SHEF ID:       GIBO2     Ft Gibson Lake, OK
STATION TYPE:  RESERVOIR
Normal Pool:  Bottom =   551.00, Top =   554.00

               PRECIP ELEVATION   STORAGE   TW-ELEV    INFLOW   RELEASE  AIR-TEMP  WIND-DIRWIND-SPEED REL-HUMID SOLAR-RAD   VOLTAGE  BAT-LOAD
                   in        ft     ac-ft        ft       cfs       cfs         F       deg       mph         %      W/m2      volt      volt
              Ccp-Rev   Ccp-Rev   Ccp-Rev   Ccp-Rev  Regi-Rev  Regi-Rev   Ccp-Rev   Ccp-Rev   Ccp-Rev   Ccp-Rev   Ccp-Rev   Ccp-Rev   Ccp-Rev
(US/Central)
03/07 00:00      0.00    557.70    440520    496.49         0     20163     38.57      7.80      1.04     56.65      1.00     13.48     13.48
03/07 01:00      0.00    557.59    438144    496.49        48     20100     38.44    187.90      0.90     63.18      0.00     13.60     13.48
03/07 02:00      0.00    557.48    435768    496.55       187     20244     37.13    213.80      0.50     62.45      0.00     13.60     13.48
03/07 03:00      0.00    557.40    434040    496.49       326     20034     36.25      5.90      0.69     65.80      0.00     13.60     13.48
03/07 04:00      0.00    557.35    432960    496.37       326     20001     35.60     42.80      0.43     67.76      1.00     13.60     13.48
03/07 05:00      0.00    557.29    431664    496.43       571     19971     34.50     11.40      1.15     69.95      0.00     13.60     13.48
03/07 06:00      0.00    557.17    429072    496.41       768     19905     33.96     21.00      0.19     70.82      0.00     13.60     13.48
03/07 07:00      0.00    557.05    426480    496.47      2136     19869     33.51     12.50      3.45     71.85      2.00     13.49     13.48
03/07 08:00      0.00    557.03    426048    496.48     10341     19842     35.82    120.30      0.26     73.62     58.00     13.59     13.48
03/07 09:00      0.00    556.99    425191    497.45     16288     19979     37.36    130.90      0.77     68.44    173.00     13.60     13.48
03/07 10:00      0.00    557.09    427344    497.84     21997     27124     38.14    141.00      0.47     57.14    301.00     13.60     13.48
03/07 11:00      0.00    557.10    427560    497.91     26660     27124     41.41     24.10      0.38     53.60    609.00     13.60     13.07
03/07 12:00      0.00    557.11    427776    497.94     25152     27154     44.29    179.50      0.26     47.19    813.00     13.60     13.48
03/07 13:00      0.00    557.11    427776    497.99     16873     27343     46.15    203.30      0.51     45.17    843.00     13.59     13.48
03/07 14:00      0.00    557.11    427776    497.99     10989     27154     48.34    200.40      0.40     42.18    805.00     13.60     13.48
03/07 15:00      0.00    556.93    423937    497.99      5100     27008     50.88    179.10      0.41     37.30    702.00     13.60     13.48
03/07 16:00      0.00    556.76    420384    497.91      2030     26864     52.63    167.70      0.63     36.44    556.00     13.60     13.48
03/07 17:00      0.00    556.68    418712    497.97      2030     26806     52.75    207.50      0.05     38.95    355.00     13.59     13.48
03/07 18:00      0.00    556.63    417667    497.93      2098     26748     52.20    295.70      0.89     38.77    145.00     13.60     13.48
03/07 19:00      0.00    556.53    415577    497.92      2167     26660     49.77    160.50      0.20     34.49      6.00     13.59     13.48
03/07 20:00      0.00    556.38    412442    497.89     13529     26728     44.49     15.80      0.71     61.35      0.00     13.48     13.48
03/07 21:00      0.00    556.30    410770    497.90     16148     26476     41.63    147.70      1.00     65.80      0.00     13.60     13.48
03/07 22:00      0.00    556.42    413278    497.94     16148     26786     39.67    139.90      1.33     74.18      1.00     13.60     13.48
03/07 23:00      0.00    556.44    413696    497.87     16015     26574     37.58    146.00      2.19     71.97      0.00     13.60     13.48